Runaway Bay, Texas
Current Conditions -  °F | °C
As of 10:15 PM on Friday 24 Oct 2014 (Local Time) from KXBP Reporting Station
Clear Clear  
Wind Chill: 74°   Ceiling: Unl
Heat Index: 74°   Visibility: 10mi
Dew Point: 61°   Wind: 9mph
Humidity: 65%   Direction: 180°S
Pressure: 30.1"   Gusts: NA
Location:  33.1691°N, 97.8246°W
Report Text: KXBP 250315Z AUTO 18008KT 10SM CLR 23/16 A3010 RMK AO2 T02310163
Loading
Personal Weather Stations






























Interactive Weather Map
Tropical Storm Tracking
New forecast layout! Learn more

10-Day Weather Forecast

Advertisements
Track Severe Weather on mobile